METAR AND TAF INFORMATION
METAR FOR FMEE
ADDS - METARS form results

(0445 UTC 04 August 2020)
Data provider http://aviationweather.gov/metar/data/
 
METAR text: FMEE 040430Z AUTO 13018KT CAVOK 20/12 Q1024 BECMG 12020G32KT
Conditions at: FMEE (ST. DENIS/GILLOT, FR) observed 0430 UTC 04 August 2020
Temperature: 20.0°C (68°F)
Dewpoint: 12.0°C (54°F) [RH = 60%]
Pressure (altimeter): 30.24 inches Hg (1024.0 mb)
Winds: from the SE (130 degrees) at 21 MPH (18 knots; 9.3 m/s)
Visibility: 6 or more miles (10+ km)
Ceiling: ceiling and visibility are OK
Clouds: unknown
Weather: no significant weather observed at this time

METAR text: FMEE 040400Z AUTO 13018KT 9999 FEW037 19/11 Q1024 BECMG 12020G32KT
Conditions at: FMEE (ST. DENIS/GILLOT, FR) observed 0400 UTC 04 August 2020
Temperature: 19.0°C (66°F)
Dewpoint: 11.0°C (52°F) [RH = 60%]
Pressure (altimeter): 30.24 inches Hg (1024.0 mb)
Winds: from the SE (130 degrees) at 21 MPH (18 knots; 9.3 m/s)
Visibility: 6 or more miles (10+ km)
Ceiling: at least 12,000 feet AGL
Clouds: few clouds at 3700 feet AGL
Weather: no significant weather observed at this time

Forecast for: FMEE (ST. DENIS/GILLOT, FR)
Text: TAF FMEE 032300Z 0400/0506 14015KT 9999 FEW030 SCT046
Forecast period: 0000 to 0400 UTC 04 August 2020
Forecast type: FROM: standard forecast or significant change
Winds: from the SE (140 degrees) at 17 MPH (15 knots; 7.7 m/s)
Visibility: 6 or more miles 10+ km)
Ceiling: at least 12,000 feet AGL
Clouds: few clouds at 3000 feet AGL
scattered clouds at 4600 feet AGL
Weather: no significant weather forecast for this period
Text: BECMG 0404/0406 12020G32KT
Forecast period: 0400 to 1200 UTC 04 August 2020
Forecast type: BECOMING: Conditions expected to become as follows by 0600 UTC 04 August 2020
Winds: from the ESE (120 degrees) at 23 MPH (20 knots; 10.3 m/s)
gusting to 37 MPH (32 knots; 16.5 m/s)
Visibility: 6 or more miles 10+ km)
Ceiling: at least 12,000 feet AGL
Clouds: few clouds at 3000 feet AGL
scattered clouds at 4600 feet AGL
Weather: no significant weather forecast for this period
Text: BECMG 0412/0414 12015KT
Forecast period: 1200 UTC 04 August 2020 to 0600 UTC 05 August 2020
Forecast type: BECOMING: Conditions expected to become as follows by 1400 UTC 04 August 2020
Winds: from the ESE (120 degrees) at 17 MPH (15 knots; 7.7 m/s)
Visibility: 6 or more miles 10+ km)
Ceiling: at least 12,000 feet AGL
Clouds: few clouds at 3000 feet AGL
scattered clouds at 4600 feet AGL
Weather: no significant weather forecast for this period

 AIRPORT MAP

 RUNWAY INFORMATION

 AIRPORT FREQUENCIES
Type A/G Name GILLOT RDO Frequency 347.6 MHZ
Type APP Name GILLOT APP Frequency 119.4 MHZ
Type ATIS Name ATIS Frequency 126.8 MHZ
Type GND Name GILLOT GND Frequency 121.9 MHZ
Type TWR Name GILLOT TWR Frequency 118.4 MHZ

 AIRPORT NEAR NAVIGATION AIDS
Type NDB Name St Denis Gillot Frequency 382 KHZ
Type VOR-DME Name St Denis Gillot Frequency 112900 KHZ



Powered by Virtual Airlines Manager [v2.6.2]